Terminal Aerodrome Forecast
Issued by NWS Wichita, KS

Home | Current Version | Previous Version | Text Only | Print | Product List | Glossary On
Versions: 1 2 3 4 5 6 7 8 9 10 11 12 13 14 15 16 17 18 19 20
000
FTUS43 KICT 180720 AAA
TAFICT
TAF AMD
KICT 180720Z 1807/1906 32017G25KT P6SM SCT020 BKN120
     FM180800 34025G33KT P6SM BKN020
     FM181500 34026G36KT P6SM SCT030
     FM190000 32010KT P6SM SKC=

USA.gov is the U.S. government's official web portal to all federal, state and local government web resources and services.